Dakar, Senegal

11:12 AM GMT on July 06, 2015 (GMT +0000)
Ngor Almadies | | Change Station
CLOSE
Current Station
Personal Weather Station
Location: Dakar, DAKAR
Elevation: 46 ft
Nearby Weather Stations

Elev 46 ft 14.74 °N, 17.51 °W | Updated 9 seconds ago

Mostly Cloudy
Mostly Cloudy
82.7 °F
Feels Like 90 °F
N
4.0
Wind Variable Wind from West
Gusts 7.0 mph

Today
High -- | Low -- °F
--% Chance of Precip.
Yesterday
High -- | Low -- °F
Precip. -- in
6:45 AM 7:43 PM
Waning Gibbous, 76% visible
Pressure 29.89 in
Visibility 6.2 miles
Clouds Mostly Cloudy 800 ft
Heat Index 90 °F
Dew Point 75 °F
Humidity 77%
Rainfall 0.00 in
Snow Depth Not available.
UV 5 out of 12
Pollen Not available.
Air Quality Not available.
Flu Activity Not available.
METAR GOOY 061100Z 27005KT 190V330 9999 BKN008 29/23 Q1012 NOSIG

More Conditions Fewer Conditions

Pressure 29.89 in
Visibility 6.2 miles
Clouds Mostly Cloudy 800 ft
Heat Index 90 °F
Dew Point 75 °F
Humidity 77%
Rainfall 0.00 in
Snow Depth Not available.
UV 5 out of 12
Pollen Not available.
Air Quality Not available.
Flu Activity Not available.
METAR GOOY 061100Z 27005KT 190V330 9999 BKN008 29/23 Q1012 NOSIG

More Conditions Fewer Conditions

10-Day Weather Forecast

×

Almanac

Astronomy

Jul. 06, 2015 Rise Set
Actual Time
Civil Twilight
Nautical Twilight
Astronomical Twilight
Moon
Length of Visible Light
Length of Day
Tomorrow will be .
, % of the Moon is Illuminated

Today's Extremes

Country Highs Country Lows

Community

WunderPhotos

Upload Photos

1,835,534 photos uploaded!

WunderBlogs® & News

Nearby

Air Quality

  Air Quality AQ Index Pollutant
Not available.

Snow Depth

Station Depth Elevation

Earthquake Activity

City Distance Mag. Time & Date
Minimum magnitude displayed is 2.5.

Coastal Water Temperatures

Place Temperature

Stations

Nearby Weather Stations

Station Location Temp. Windchill Dew Point Humidity Wind Precip. Elev Updated Type